Time;durP1;ratioP1;P1;durP2;ratioP2;P2;SDS_P1;SDS_P2;PMS_P1;PMS_P2;Temp;Humidity;BMP_temperature;BMP_pressure;BME280_temperature;BME280_humidity;BME280_pressure;Samples;Min_cycle;Max_cycle;Signal;HPM_P1;HPM_P2
2022/09/06 00:00:36;;;;;;;7.47;6.68;;;;;;;;;;5050223;28;20424;-82
2022/09/06 00:03:03;;;;;;;7.50;6.80;;;;;;;;;;5048388;28;20411;-81
2022/09/06 00:05:30;;;;;;;7.60;6.90;;;;;;;;;;5048677;28;20591;-82
2022/09/06 00:07:58;;;;;;;8.57;6.70;;;;;;;;;;5048130;28;20430;-82
2022/09/06 00:10:24;;;;;;;7.95;6.70;;;;;;;;;;5046865;28;20431;-81
2022/09/06 00:12:52;;;;;;;8.20;6.45;;;;;;;;;;5047595;28;20520;-81
2022/09/06 00:15:19;;;;;;;7.18;6.57;;;;;;;;;;5047902;28;20859;-82
2022/09/06 00:17:50;;;;;;;7.45;6.75;;;;;;;;;;5046676;28;20445;-82
2022/09/06 00:20:17;;;;;;;7.50;6.70;;;;;;;;;;5046932;28;22045;-82
2022/09/06 00:22:43;;;;;;;7.47;6.60;;;;;;;;;;5047726;28;20489;-82
2022/09/06 00:25:10;;;;;;;6.90;6.30;;;;;;;;;;5046987;28;20421;-82
2022/09/06 00:27:37;;;;;;;7.00;6.40;;;;;;;;;;5049772;28;20430;-82
2022/09/06 00:30:05;;;;;;;7.25;6.55;;;;;;;;;;5048577;28;20430;-83
2022/09/06 00:32:32;;;;;;;7.45;6.85;;;;;;;;;;5051790;28;20501;-80
2022/09/06 00:35:00;;;;;;;7.40;6.63;;;;;;;;;;5049275;28;22157;-80
2022/09/06 00:37:27;;;;;;;8.20;7.50;;;;;;;;;;5048582;28;20445;-82
2022/09/06 00:39:54;;;;;;;7.93;7.32;;;;;;;;;;5049028;28;20421;-81
2022/09/06 00:42:20;;;;;;;7.60;6.97;;;;;;;;;;5047694;28;20435;-81
2022/09/06 00:44:48;;;;;;;7.50;6.80;;;;;;;;;;5046169;28;20871;-82
2022/09/06 00:47:16;;;;;;;7.93;7.15;;;;;;;;;;5047915;28;20422;-80
2022/09/06 00:49:44;;;;;;;7.95;7.20;;;;;;;;;;5046283;28;20421;-83
2022/09/06 00:52:13;;;;;;;9.35;7.45;;;;;;;;;;5049179;28;20443;-82
2022/09/06 00:54:41;;;;;;;8.77;7.97;;;;;;;;;;5046837;28;20909;-81
2022/09/06 00:57:08;;;;;;;8.18;7.57;;;;;;;;;;5049203;28;20560;-81
2022/09/06 00:59:36;;;;;;;8.80;8.00;;;;;;;;;;5048116;28;20425;-82
2022/09/06 01:02:04;;;;;;;8.82;7.10;;;;;;;;;;5045708;28;20437;-81
2022/09/06 01:04:33;;;;;;;8.30;7.50;;;;;;;;;;5048769;28;20444;-80
2022/09/06 01:09:48;;;;;;;9.50;7.63;;;;;;;;;;5045628;28;20422;-82
2022/09/06 01:12:25;;;;;;;8.15;7.45;;;;;;;;;;5048705;28;20857;-83
2022/09/06 01:14:56;;;;;;;7.97;7.28;;;;;;;;;;5047140;28;20421;-82
2022/09/06 01:17:27;;;;;;;7.50;6.90;;;;;;;;;;5045848;28;20452;-81
2022/09/06 01:20:19;;;;;;;7.73;7.13;;;;;;;;;;5046077;28;20432;-81
2022/09/06 01:22:59;;;;;;;7.83;7.03;;;;;;;;;;5045624;28;20818;-81
2022/09/06 01:25:34;;;;;;;8.70;7.90;;;;;;;;;;5050087;28;20435;-81
2022/09/06 01:28:11;;;;;;;8.05;7.25;;;;;;;;;;5047792;28;20433;-80
2022/09/06 01:30:38;;;;;;;8.32;7.47;;;;;;;;;;5047584;28;20431;-80
2022/09/06 01:33:10;;;;;;;8.52;7.82;;;;;;;;;;5047878;28;20421;-80
2022/09/06 01:35:39;;;;;;;8.70;8.00;;;;;;;;;;5047876;28;20443;-81
2022/09/06 01:38:07;;;;;;;8.70;8.00;;;;;;;;;;5045598;28;20428;-81
2022/09/06 01:40:35;;;;;;;9.57;7.30;;;;;;;;;;5048702;28;20439;-80
2022/09/06 01:43:02;;;;;;;8.07;7.28;;;;;;;;;;5048227;28;20427;-80
2022/09/06 01:45:34;;;;;;;7.80;7.10;;;;;;;;;;5046531;28;20429;-83
2022/09/06 01:48:03;;;;;;;10.25;7.30;;;;;;;;;;5045380;28;20497;-81
2022/09/06 01:50:54;;;;;;;7.90;7.20;;;;;;;;;;5047394;28;20772;-80
2022/09/06 01:53:35;;;;;;;8.25;7.55;;;;;;;;;;5020867;28;20422;-81
2022/09/06 01:56:08;;;;;;;7.90;7.20;;;;;;;;;;5046648;28;20435;-81
2022/09/06 01:58:57;;;;;;;8.43;7.72;;;;;;;;;;5045128;28;20430;-82
2022/09/06 02:01:27;;;;;;;8.60;6.60;;;;;;;;;;5048065;28;20429;-81
2022/09/06 02:04:00;;;;;;;8.32;7.53;;;;;;;;;;5045060;28;20427;-81
2022/09/06 02:06:28;;;;;;;8.40;7.63;;;;;;;;;;5046628;28;20442;-81
2022/09/06 02:08:57;;;;;;;8.40;7.55;;;;;;;;;;5046267;28;20417;-82
2022/09/06 02:11:24;;;;;;;8.90;7.70;;;;;;;;;;5046541;28;20435;-82
2022/09/06 02:13:52;;;;;;;9.35;7.93;;;;;;;;;;5046291;28;20423;-81
2022/09/06 02:16:21;;;;;;;7.75;7.05;;;;;;;;;;5045392;28;20436;-82
2022/09/06 02:18:51;;;;;;;7.40;6.80;;;;;;;;;;5043547;28;20426;-82
2022/09/06 02:21:19;;;;;;;8.10;7.40;;;;;;;;;;5049881;28;20486;-81
2022/09/06 02:23:46;;;;;;;8.00;7.30;;;;;;;;;;5045877;28;20431;-81
2022/09/06 02:26:14;;;;;;;8.43;7.72;;;;;;;;;;5047201;28;20431;-81
2022/09/06 02:28:43;;;;;;;8.30;7.60;;;;;;;;;;5044683;28;20428;-82
2022/09/06 02:31:12;;;;;;;8.48;7.78;;;;;;;;;;5047839;28;20429;-81
2022/09/06 02:33:40;;;;;;;9.45;8.20;;;;;;;;;;5044836;28;20467;-81
2022/09/06 02:36:09;;;;;;;8.70;7.90;;;;;;;;;;5045988;28;20435;-80
2022/09/06 02:38:39;;;;;;;9.38;8.52;;;;;;;;;;5046178;28;20420;-81
2022/09/06 02:41:08;;;;;;;8.70;8.00;;;;;;;;;;5052129;28;20429;-81
2022/09/06 02:43:35;;;;;;;8.75;8.05;;;;;;;;;;5050093;28;21581;-81
2022/09/06 02:46:01;;;;;;;8.80;8.00;;;;;;;;;;5050300;28;20447;-81
2022/09/06 02:48:27;;;;;;;8.38;7.68;;;;;;;;;;5051074;28;20429;-82
2022/09/06 02:50:54;;;;;;;8.20;7.60;;;;;;;;;;5049764;28;20435;-82
2022/09/06 02:53:22;;;;;;;8.98;8.07;;;;;;;;;;5049894;28;20798;-81
2022/09/06 02:55:50;;;;;;;8.50;7.80;;;;;;;;;;5049256;28;20426;-82
2022/09/06 02:58:16;;;;;;;8.65;7.90;;;;;;;;;;5049564;28;20472;-81
2022/09/06 03:00:42;;;;;;;9.20;8.30;;;;;;;;;;5048617;28;20471;-81
2022/09/06 03:03:09;;;;;;;9.55;8.65;;;;;;;;;;5048129;28;20923;-81
2022/09/06 03:05:35;;;;;;;9.07;8.18;;;;;;;;;;5049937;28;20451;-80
2022/09/06 03:08:02;;;;;;;9.05;8.10;;;;;;;;;;5048114;28;22393;-81
2022/09/06 03:10:30;;;;;;;8.50;7.70;;;;;;;;;;5050515;28;20432;-84
2022/09/06 03:12:57;;;;;;;9.10;8.30;;;;;;;;;;5049638;28;20457;-82
2022/09/06 03:15:24;;;;;;;8.63;7.93;;;;;;;;;;5048692;28;20433;-83
2022/09/06 03:17:51;;;;;;;8.70;8.00;;;;;;;;;;5045416;28;20427;-82
2022/09/06 03:20:17;;;;;;;8.40;7.70;;;;;;;;;;5053430;28;20425;-81
2022/09/06 03:22:44;;;;;;;8.50;7.70;;;;;;;;;;5049365;28;20425;-82
2022/09/06 03:25:10;;;;;;;9.00;8.30;;;;;;;;;;5049819;28;20551;-82
2022/09/06 03:27:38;;;;;;;8.07;7.38;;;;;;;;;;5050296;28;20433;-81
2022/09/06 03:30:06;;;;;;;9.33;8.43;;;;;;;;;;5050708;28;20501;-83
2022/09/06 03:32:33;;;;;;;7.90;7.20;;;;;;;;;;5050803;28;21106;-82
2022/09/06 03:34:59;;;;;;;9.30;8.30;;;;;;;;;;5048480;28;20440;-82
2022/09/06 03:37:28;;;;;;;8.93;7.93;;;;;;;;;;5047971;28;20956;-82
2022/09/06 03:39:54;;;;;;;8.50;7.80;;;;;;;;;;5051313;28;20464;-82
2022/09/06 03:42:21;;;;;;;10.10;8.75;;;;;;;;;;5050024;28;20433;-83
2022/09/06 03:44:50;;;;;;;9.80;8.97;;;;;;;;;;5048041;28;20425;-82
2022/09/06 03:47:16;;;;;;;8.27;7.55;;;;;;;;;;5048201;28;21278;-82
2022/09/06 03:49:44;;;;;;;9.13;8.32;;;;;;;;;;5048927;28;20441;-82
2022/09/06 03:52:10;;;;;;;9.20;8.20;;;;;;;;;;5048940;28;20439;-82
2022/09/06 03:54:36;;;;;;;9.33;8.40;;;;;;;;;;5049615;28;20431;-82
2022/09/06 03:57:04;;;;;;;9.43;7.78;;;;;;;;;;5048171;28;21405;-82
2022/09/06 03:59:31;;;;;;;8.90;8.10;;;;;;;;;;5046694;28;20429;-82
2022/09/06 04:01:59;;;;;;;9.02;8.23;;;;;;;;;;5049872;28;20436;-83
2022/09/06 04:04:27;;;;;;;9.25;8.35;;;;;;;;;;5046507;28;20458;-82
2022/09/06 04:06:53;;;;;;;8.82;8.02;;;;;;;;;;5047685;28;20857;-83
2022/09/06 04:09:21;;;;;;;9.48;8.57;;;;;;;;;;5047310;28;20458;-82
2022/09/06 04:11:48;;;;;;;8.38;7.57;;;;;;;;;;5047050;28;20490;-82
2022/09/06 04:14:14;;;;;;;9.80;8.80;;;;;;;;;;5049850;28;20444;-81
2022/09/06 04:16:41;;;;;;;9.10;8.20;;;;;;;;;;5052606;28;20439;-82
2022/09/06 04:19:09;;;;;;;8.30;7.60;;;;;;;;;;5049237;28;20818;-82
2022/09/06 04:21:35;;;;;;;8.60;7.70;;;;;;;;;;5049369;28;20432;-82
2022/09/06 04:24:02;;;;;;;8.93;8.05;;;;;;;;;;5048846;28;21899;-81
2022/09/06 04:26:30;;;;;;;8.90;8.10;;;;;;;;;;5049348;28;20429;-81
2022/09/06 04:28:56;;;;;;;8.70;7.80;;;;;;;;;;5048535;28;20429;-81
2022/09/06 04:31:24;;;;;;;8.80;7.90;;;;;;;;;;5048286;28;20433;-83
2022/09/06 04:33:51;;;;;;;9.15;7.20;;;;;;;;;;5048413;28;20427;-82
2022/09/06 04:36:19;;;;;;;8.40;7.60;;;;;;;;;;5047969;28;20441;-82
2022/09/06 04:38:46;;;;;;;7.95;7.15;;;;;;;;;;5048922;28;20418;-83
2022/09/06 04:41:14;;;;;;;8.70;7.90;;;;;;;;;;5048879;28;20421;-81
2022/09/06 04:43:41;;;;;;;8.82;8.02;;;;;;;;;;5048829;28;20449;-82
2022/09/06 04:46:11;;;;;;;8.70;7.50;;;;;;;;;;5048596;28;20433;-83
2022/09/06 04:48:37;;;;;;;8.90;8.00;;;;;;;;;;5047145;28;20430;-82
2022/09/06 04:51:03;;;;;;;8.53;7.70;;;;;;;;;;5049269;28;20504;-82
2022/09/06 04:53:32;;;;;;;8.27;7.40;;;;;;;;;;5061172;28;20421;-82
2022/09/06 04:55:58;;;;;;;9.27;8.38;;;;;;;;;;5047428;28;20437;-82
2022/09/06 04:58:25;;;;;;;8.60;7.80;;;;;;;;;;5045750;28;20422;-82
2022/09/06 05:00:51;;;;;;;8.90;7.50;;;;;;;;;;5046348;28;20433;-82
2022/09/06 05:03:18;;;;;;;8.05;7.35;;;;;;;;;;5045469;28;20895;-82
2022/09/06 05:05:46;;;;;;;8.20;7.40;;;;;;;;;;5046028;28;20436;-82
2022/09/06 05:08:15;;;;;;;10.00;8.00;;;;;;;;;;5038343;28;20436;-82
2022/09/06 05:10:43;;;;;;;8.60;7.80;;;;;;;;;;5059023;28;20941;-82
2022/09/06 05:13:12;;;;;;;8.60;7.70;;;;;;;;;;5047413;28;20765;-82
2022/09/06 05:15:40;;;;;;;8.07;7.28;;;;;;;;;;5049533;28;20442;-81
2022/09/06 05:18:09;;;;;;;10.45;8.20;;;;;;;;;;5047914;28;20418;-81
2022/09/06 05:20:36;;;;;;;9.32;8.10;;;;;;;;;;5048148;28;20518;-82
2022/09/06 05:23:02;;;;;;;8.68;6.75;;;;;;;;;;5047037;28;21068;-81
2022/09/06 05:25:29;;;;;;;9.20;7.70;;;;;;;;;;5047797;28;20456;-82
2022/09/06 05:27:56;;;;;;;7.93;7.13;;;;;;;;;;5046080;28;20446;-82
2022/09/06 05:30:23;;;;;;;8.20;7.40;;;;;;;;;;5045917;28;20429;-82
2022/09/06 05:32:52;;;;;;;7.27;6.57;;;;;;;;;;5046041;28;20482;-81
2022/09/06 05:35:18;;;;;;;8.27;7.40;;;;;;;;;;5044419;28;20439;-81
2022/09/06 05:37:44;;;;;;;7.63;6.93;;;;;;;;;;5043226;28;20436;-82
2022/09/06 05:40:11;;;;;;;8.30;7.35;;;;;;;;;;5047685;28;20424;-83
2022/09/06 05:42:37;;;;;;;9.00;7.40;;;;;;;;;;5045409;28;20445;-82
2022/09/06 05:45:06;;;;;;;8.80;7.10;;;;;;;;;;5047212;28;20488;-83
2022/09/06 05:47:34;;;;;;;8.00;7.30;;;;;;;;;;5046551;28;20465;-82
2022/09/06 05:50:00;;;;;;;8.00;7.20;;;;;;;;;;5046080;28;20450;-82
2022/09/06 05:52:27;;;;;;;7.70;7.00;;;;;;;;;;5048094;28;20466;-81
2022/09/06 05:54:55;;;;;;;7.53;6.60;;;;;;;;;;5048022;28;20927;-81
2022/09/06 05:57:22;;;;;;;9.10;7.90;;;;;;;;;;5046538;28;20489;-81
2022/09/06 05:59:49;;;;;;;6.75;6.10;;;;;;;;;;5043831;28;20970;-81
2022/09/06 06:02:17;;;;;;;8.73;7.30;;;;;;;;;;5043798;28;20427;-81
2022/09/06 06:04:43;;;;;;;7.70;6.67;;;;;;;;;;5046219;28;20433;-82
2022/09/06 06:07:10;;;;;;;7.60;6.80;;;;;;;;;;5044547;28;20428;-82
2022/09/06 06:09:36;;;;;;;8.37;7.40;;;;;;;;;;5048389;28;20430;-81
2022/09/06 06:12:03;;;;;;;8.88;6.70;;;;;;;;;;5047170;28;20545;-81
2022/09/06 06:14:30;;;;;;;8.85;7.03;;;;;;;;;;5048465;28;20423;-80
2022/09/06 06:16:57;;;;;;;7.90;7.20;;;;;;;;;;5047552;28;20418;-80
2022/09/06 06:19:26;;;;;;;10.93;7.97;;;;;;;;;;5046329;28;21019;-80
2022/09/06 06:21:54;;;;;;;8.63;7.35;;;;;;;;;;5049200;28;20489;-80
2022/09/06 06:24:21;;;;;;;7.10;6.40;;;;;;;;;;5047324;28;20930;-80
2022/09/06 06:26:48;;;;;;;8.60;6.72;;;;;;;;;;5046586;28;20500;-81
2022/09/06 06:29:14;;;;;;;7.68;6.97;;;;;;;;;;5047091;28;20415;-81
2022/09/06 06:31:41;;;;;;;6.88;6.20;;;;;;;;;;5046235;28;20409;-81
2022/09/06 06:34:07;;;;;;;7.50;6.80;;;;;;;;;;5046238;28;20820;-81
2022/09/06 06:36:36;;;;;;;8.15;7.35;;;;;;;;;;5045973;28;20908;-80
2022/09/06 06:39:04;;;;;;;8.95;7.15;;;;;;;;;;5047268;28;20428;-81
2022/09/06 06:41:31;;;;;;;8.73;6.40;;;;;;;;;;5045367;28;20425;-81
2022/09/06 06:44:00;;;;;;;8.55;7.68;;;;;;;;;;5043679;28;20487;-80
2022/09/06 06:46:30;;;;;;;9.38;6.47;;;;;;;;;;5045956;28;20468;-81
2022/09/06 06:48:56;;;;;;;10.10;6.90;;;;;;;;;;5044745;28;20921;-83
2022/09/06 06:51:24;;;;;;;8.05;7.35;;;;;;;;;;5053030;28;20437;-81
2022/09/06 06:53:51;;;;;;;8.60;7.05;;;;;;;;;;5045462;28;20506;-83
2022/09/06 06:56:19;;;;;;;9.45;6.80;;;;;;;;;;5044115;28;20420;-82
2022/09/06 06:58:47;;;;;;;7.80;7.00;;;;;;;;;;5060931;28;20417;-83
2022/09/06 07:01:14;;;;;;;9.82;6.97;;;;;;;;;;5046490;28;20938;-82
2022/09/06 07:03:41;;;;;;;8.40;6.80;;;;;;;;;;5045791;28;20414;-82
2022/09/06 07:06:08;;;;;;;8.52;6.70;;;;;;;;;;5045088;28;20437;-82
2022/09/06 07:08:37;;;;;;;10.30;6.95;;;;;;;;;;5045925;28;20479;-81
2022/09/06 07:11:05;;;;;;;15.07;7.10;;;;;;;;;;5048441;28;20413;-82
2022/09/06 07:13:32;;;;;;;10.00;6.60;;;;;;;;;;5044316;28;20999;-82
2022/09/06 07:16:12;;;;;;;7.67;6.97;;;;;;;;;;5046915;28;20460;-81
2022/09/06 07:18:40;;;;;;;6.22;5.65;;;;;;;;;;5044705;28;20473;-81
2022/09/06 07:21:08;;;;;;;7.20;6.50;;;;;;;;;;5047862;28;20462;-81
2022/09/06 07:23:34;;;;;;;8.67;5.90;;;;;;;;;;5045554;28;20413;-82
2022/09/06 07:26:01;;;;;;;7.40;5.95;;;;;;;;;;5046139;28;20418;-81
2022/09/06 07:28:32;;;;;;;9.68;6.07;;;;;;;;;;5047271;28;20413;-83
2022/09/06 07:30:59;;;;;;;6.60;5.90;;;;;;;;;;5049625;28;20418;-82
2022/09/06 07:33:26;;;;;;;7.10;6.40;;;;;;;;;;5049834;28;21007;-82
2022/09/06 07:35:59;;;;;;;8.05;5.88;;;;;;;;;;5050634;28;20441;-81
2022/09/06 07:38:27;;;;;;;7.63;5.57;;;;;;;;;;5047970;28;20437;-82
2022/09/06 07:40:54;;;;;;;7.13;6.18;;;;;;;;;;5049869;28;20413;-81
2022/09/06 07:43:22;;;;;;;11.02;6.60;;;;;;;;;;5048934;28;20422;-82
2022/09/06 07:45:57;;;;;;;6.82;6.22;;;;;;;;;;5048668;28;20954;-82
2022/09/06 07:48:24;;;;;;;6.72;5.70;;;;;;;;;;5044844;28;20429;-81
2022/09/06 07:50:50;;;;;;;9.40;6.57;;;;;;;;;;5051125;28;20433;-82
2022/09/06 07:53:17;;;;;;;7.53;6.00;;;;;;;;;;5046268;28;20426;-82
2022/09/06 07:55:43;;;;;;;6.43;5.82;;;;;;;;;;5048064;28;20431;-82
2022/09/06 07:58:09;;;;;;;8.98;6.53;;;;;;;;;;5048975;28;20411;-82
2022/09/06 08:00:37;;;;;;;7.00;5.65;;;;;;;;;;5048665;28;20433;-83
2022/09/06 08:03:07;;;;;;;7.25;6.47;;;;;;;;;;5050221;28;20411;-82
2022/09/06 08:05:33;;;;;;;7.25;6.40;;;;;;;;;;5052335;28;20510;-83
2022/09/06 08:08:00;;;;;;;6.72;6.03;;;;;;;;;;5050193;28;20409;-82
2022/09/06 08:10:27;;;;;;;7.68;6.40;;;;;;;;;;5050388;28;20456;-80
2022/09/06 08:12:54;;;;;;;9.02;6.57;;;;;;;;;;5046978;28;20462;-81
2022/09/06 08:15:20;;;;;;;6.55;5.97;;;;;;;;;;5051649;28;20421;-80
2022/09/06 08:17:48;;;;;;;6.60;5.60;;;;;;;;;;5048227;28;20421;-81
2022/09/06 08:20:16;;;;;;;6.40;5.70;;;;;;;;;;5050222;28;20461;-81
2022/09/06 08:22:42;;;;;;;7.75;5.80;;;;;;;;;;5048196;28;20415;-80
2022/09/06 08:25:09;;;;;;;9.30;6.22;;;;;;;;;;5042575;28;20441;-81
2022/09/06 08:27:37;;;;;;;6.82;5.70;;;;;;;;;;5048630;28;20417;-81
2022/09/06 08:30:04;;;;;;;6.50;5.40;;;;;;;;;;5047635;28;20435;-81
2022/09/06 08:32:33;;;;;;;9.32;5.88;;;;;;;;;;5050338;28;20445;-81
2022/09/06 08:34:59;;;;;;;6.43;5.93;;;;;;;;;;5049073;28;20467;-82
2022/09/06 08:37:27;;;;;;;8.02;5.63;;;;;;;;;;5048064;28;20920;-83
2022/09/06 08:40:01;;;;;;;6.47;5.40;;;;;;;;;;5048109;28;20459;-81
2022/09/06 08:42:27;;;;;;;7.60;5.40;;;;;;;;;;5048194;28;20416;-81
2022/09/06 08:44:56;;;;;;;9.02;5.43;;;;;;;;;;5049363;28;20411;-83
2022/09/06 08:47:23;;;;;;;7.37;5.23;;;;;;;;;;5047433;28;20469;-81
2022/09/06 08:49:51;;;;;;;6.88;5.70;;;;;;;;;;5048030;28;20462;-81
2022/09/06 08:52:32;;;;;;;6.10;5.50;;;;;;;;;;5047578;28;20437;-81
2022/09/06 08:55:05;;;;;;;7.65;4.93;;;;;;;;;;5047526;28;20427;-82
2022/09/06 08:57:42;;;;;;;6.25;5.10;;;;;;;;;;5047588;28;20413;-81
2022/09/06 09:00:10;;;;;;;8.60;5.60;;;;;;;;;;5049612;28;20408;-81
2022/09/06 09:02:41;;;;;;;7.60;5.50;;;;;;;;;;5051294;28;20433;-80
2022/09/06 09:05:14;;;;;;;7.78;5.30;;;;;;;;;;5051090;28;20433;-81
2022/09/06 09:07:43;;;;;;;7.07;5.80;;;;;;;;;;5047860;28;20439;-81
2022/09/06 09:10:12;;;;;;;7.23;5.53;;;;;;;;;;5047565;28;20418;-81
2022/09/06 09:12:44;;;;;;;7.60;5.50;;;;;;;;;;5049521;28;20517;-81
2022/09/06 09:15:12;;;;;;;6.57;5.53;;;;;;;;;;5048347;28;20440;-81
2022/09/06 09:17:39;;;;;;;8.55;5.40;;;;;;;;;;5048659;28;20994;-81
2022/09/06 09:20:07;;;;;;;5.80;5.20;;;;;;;;;;5047881;28;20435;-80
2022/09/06 09:22:35;;;;;;;7.88;5.55;;;;;;;;;;5047172;28;20422;-80
2022/09/06 09:25:09;;;;;;;6.53;5.30;;;;;;;;;;5046641;28;20419;-81
2022/09/06 09:27:36;;;;;;;6.07;5.47;;;;;;;;;;5046231;28;20456;-81
2022/09/06 09:30:04;;;;;;;9.05;6.05;;;;;;;;;;5047526;28;20427;-81
2022/09/06 09:32:32;;;;;;;6.88;5.72;;;;;;;;;;5047658;28;20423;-82
2022/09/06 09:35:19;;;;;;;8.35;5.75;;;;;;;;;;5047755;28;20421;-81
2022/09/06 09:37:45;;;;;;;9.82;5.85;;;;;;;;;;5046381;28;20419;-81
2022/09/06 09:40:18;;;;;;;7.72;5.50;;;;;;;;;;5044463;28;20424;-81
2022/09/06 09:42:45;;;;;;;6.30;5.70;;;;;;;;;;5043529;28;20413;-81
2022/09/06 09:45:26;;;;;;;10.40;5.20;;;;;;;;;;5044625;28;20443;-80
2022/09/06 09:47:53;;;;;;;8.40;5.72;;;;;;;;;;5036298;28;20418;-81
2022/09/06 09:50:24;;;;;;;9.82;6.00;;;;;;;;;;5041926;28;20426;-82
2022/09/06 09:52:50;;;;;;;8.32;6.40;;;;;;;;;;5044968;28;20510;-82
2022/09/06 09:55:21;;;;;;;6.30;5.70;;;;;;;;;;5048744;28;20414;-80
2022/09/06 09:57:49;;;;;;;10.48;6.30;;;;;;;;;;5047438;28;20452;-81
2022/09/06 10:00:31;;;;;;;8.35;6.00;;;;;;;;;;5048758;28;20419;-80
2022/09/06 10:02:59;;;;;;;7.65;5.80;;;;;;;;;;5047957;28;20555;-81
2022/09/06 10:05:26;;;;;;;7.20;5.40;;;;;;;;;;5048334;28;20443;-81
2022/09/06 10:07:54;;;;;;;9.18;5.72;;;;;;;;;;5047999;28;20446;-81
2022/09/06 10:10:24;;;;;;;5.95;5.20;;;;;;;;;;5047670;28;20418;-82
2022/09/06 10:13:06;;;;;;;7.88;5.70;;;;;;;;;;5047698;28;20421;-81
2022/09/06 10:15:33;;;;;;;7.30;5.40;;;;;;;;;;5048807;28;20433;-80
2022/09/06 10:18:00;;;;;;;7.70;6.10;;;;;;;;;;5045461;28;20515;-83
2022/09/06 10:20:32;;;;;;;9.77;5.60;;;;;;;;;;5049327;28;20431;-81
2022/09/06 10:23:00;;;;;;;8.73;6.00;;;;;;;;;;5037692;28;20445;-81
2022/09/06 10:25:44;;;;;;;6.97;5.80;;;;;;;;;;5061065;28;20429;-81
2022/09/06 10:28:28;;;;;;;6.40;5.53;;;;;;;;;;5047987;28;20405;-80
2022/09/06 10:31:02;;;;;;;9.40;5.90;;;;;;;;;;5047226;28;20413;-80
2022/09/06 10:33:34;;;;;;;9.50;5.70;;;;;;;;;;5046007;28;20480;-80
2022/09/06 10:36:02;;;;;;;7.85;5.55;;;;;;;;;;5047569;28;20427;-83
2022/09/06 10:38:49;;;;;;;6.72;6.07;;;;;;;;;;5046178;28;20423;-83
2022/09/06 10:41:28;;;;;;;6.60;5.40;;;;;;;;;;5041008;28;20429;-82
2022/09/06 10:44:04;;;;;;;6.72;5.82;;;;;;;;;;5043448;28;20429;-81
2022/09/06 10:46:35;;;;;;;6.80;6.03;;;;;;;;;;5050329;28;20425;-81
2022/09/06 10:49:01;;;;;;;8.73;6.10;;;;;;;;;;5042905;28;20950;-82
2022/09/06 10:51:32;;;;;;;10.70;6.40;;;;;;;;;;5048500;28;21077;-80
2022/09/06 10:54:05;;;;;;;8.07;5.57;;;;;;;;;;5050047;28;20423;-81
2022/09/06 10:56:43;;;;;;;10.67;6.30;;;;;;;;;;5046747;28;20447;-80
2022/09/06 10:59:14;;;;;;;12.90;7.00;;;;;;;;;;5046479;28;20430;-80
2022/09/06 11:01:42;;;;;;;7.28;6.57;;;;;;;;;;5049010;28;20905;-83
2022/09/06 11:04:10;;;;;;;9.65;6.32;;;;;;;;;;5050494;28;20422;-80
2022/09/06 11:06:39;;;;;;;9.48;6.32;;;;;;;;;;5049011;28;20435;-82
2022/09/06 11:09:12;;;;;;;6.75;6.00;;;;;;;;;;5050889;28;20762;-82
2022/09/06 11:11:43;;;;;;;8.93;5.53;;;;;;;;;;5050447;28;20430;-80
2022/09/06 11:14:12;;;;;;;8.10;6.03;;;;;;;;;;5048828;28;20421;-81
2022/09/06 11:16:43;;;;;;;9.10;6.70;;;;;;;;;;5050906;28;20619;-82
2022/09/06 11:19:16;;;;;;;7.00;6.20;;;;;;;;;;5051397;28;20410;-80
2022/09/06 11:21:58;;;;;;;9.38;6.85;;;;;;;;;;5051933;28;20466;-81
2022/09/06 11:24:36;;;;;;;7.57;6.05;;;;;;;;;;5047964;28;20488;-82
2022/09/06 11:27:11;;;;;;;7.85;6.63;;;;;;;;;;5050049;28;20429;-81
2022/09/06 11:29:40;;;;;;;7.93;6.57;;;;;;;;;;5049248;28;20948;-82
2022/09/06 11:32:27;;;;;;;10.10;6.20;;;;;;;;;;5049544;28;20466;-81
2022/09/06 11:34:55;;;;;;;9.25;7.40;;;;;;;;;;5048954;28;20423;-81
2022/09/06 11:37:25;;;;;;;9.65;6.50;;;;;;;;;;5049612;28;20518;-81
2022/09/06 11:40:02;;;;;;;7.18;6.07;;;;;;;;;;5047516;28;20434;-82
2022/09/06 11:42:48;;;;;;;9.30;6.30;;;;;;;;;;5049084;28;20411;-81
2022/09/06 11:45:20;;;;;;;8.80;6.60;;;;;;;;;;5033365;28;21019;-82
2022/09/06 11:47:47;;;;;;;8.88;6.47;;;;;;;;;;5047302;28;20418;-82
2022/09/06 11:50:47;;;;;;;9.70;6.93;;;;;;;;;;5050182;28;20427;-81
2022/09/06 11:53:18;;;;;;;7.28;6.28;;;;;;;;;;5050741;28;20411;-81
2022/09/06 11:55:46;;;;;;;9.57;7.30;;;;;;;;;;5050715;28;20438;-82
2022/09/06 11:58:22;;;;;;;9.30;7.35;;;;;;;;;;5048965;28;20427;-81
2022/09/06 12:01:03;;;;;;;7.90;7.10;;;;;;;;;;5050942;28;20455;-82
2022/09/06 12:03:49;;;;;;;8.02;7.22;;;;;;;;;;5048017;28;20411;-81
2022/09/06 12:06:19;;;;;;;9.60;7.70;;;;;;;;;;5047333;28;20432;-81
2022/09/06 12:08:45;;;;;;;9.18;7.40;;;;;;;;;;5048533;28;20924;-81
2022/09/06 12:11:22;;;;;;;8.30;7.47;;;;;;;;;;5050150;28;20440;-82
2022/09/06 12:13:53;;;;;;;8.15;7.35;;;;;;;;;;5047871;28;20505;-82
2022/09/06 12:16:19;;;;;;;9.63;7.53;;;;;;;;;;5049177;28;20455;-82
2022/09/06 12:18:53;;;;;;;8.20;7.47;;;;;;;;;;5046888;28;20421;-81
2022/09/06 12:21:41;;;;;;;9.35;7.53;;;;;;;;;;5049500;28;20441;-82
2022/09/06 12:24:09;;;;;;;8.80;7.80;;;;;;;;;;5048605;28;20422;-82
2022/09/06 12:26:46;;;;;;;10.27;9.25;;;;;;;;;;5047372;28;20409;-81
2022/09/06 12:29:15;;;;;;;11.43;9.60;;;;;;;;;;5049900;28;20445;-84
2022/09/06 12:31:42;;;;;;;9.82;8.40;;;;;;;;;;5049312;28;20413;-81
2022/09/06 12:34:12;;;;;;;8.73;7.93;;;;;;;;;;5046994;28;20421;-82
2022/09/06 12:36:48;;;;;;;10.38;8.77;;;;;;;;;;5046852;28;20918;-81
2022/09/06 12:39:16;;;;;;;8.20;7.50;;;;;;;;;;5047621;28;20421;-83
2022/09/06 12:41:43;;;;;;;8.32;7.53;;;;;;;;;;5047547;28;20914;-83
2022/09/06 12:44:10;;;;;;;9.18;8.18;;;;;;;;;;5046286;28;20412;-82
2022/09/06 12:46:38;;;;;;;9.38;7.90;;;;;;;;;;5053313;28;20427;-82
2022/09/06 12:49:06;;;;;;;8.93;8.00;;;;;;;;;;5038718;28;20874;-81
2022/09/06 12:51:35;;;;;;;12.38;8.50;;;;;;;;;;5047832;28;20426;-82
2022/09/06 12:54:04;;;;;;;8.40;7.60;;;;;;;;;;5057172;28;20411;-81
2022/09/06 12:56:33;;;;;;;7.78;7.13;;;;;;;;;;5068046;28;20446;-81
2022/09/06 12:59:13;;;;;;;8.75;7.85;;;;;;;;;;5069340;28;20433;-81
2022/09/06 13:01:41;;;;;;;9.33;8.43;;;;;;;;;;5073213;28;20446;-80
2022/09/06 13:04:10;;;;;;;9.95;8.57;;;;;;;;;;5055750;28;20943;-81
2022/09/06 13:06:39;;;;;;;9.48;8.55;;;;;;;;;;5047626;28;20799;-81
2022/09/06 13:09:08;;;;;;;9.18;8.27;;;;;;;;;;5047687;28;20417;-82
2022/09/06 13:11:37;;;;;;;10.43;8.40;;;;;;;;;;5047058;28;20497;-82
2022/09/06 13:14:09;;;;;;;10.27;8.20;;;;;;;;;;5046590;28;20445;-82
2022/09/06 13:16:42;;;;;;;8.80;7.90;;;;;;;;;;5048202;28;20944;-83
2022/09/06 13:19:12;;;;;;;9.45;8.30;;;;;;;;;;5047695;28;20419;-83
2022/09/06 13:21:39;;;;;;;9.68;8.10;;;;;;;;;;5046546;28;20510;-81
2022/09/06 13:24:19;;;;;;;9.10;8.20;;;;;;;;;;5061243;28;20411;-81
2022/09/06 13:26:45;;;;;;;8.35;7.55;;;;;;;;;;5045543;28;20431;-82
2022/09/06 13:29:22;;;;;;;10.73;8.32;;;;;;;;;;5047458;28;20799;-81
2022/09/06 13:31:50;;;;;;;8.30;7.60;;;;;;;;;;5046591;28;20415;-81
2022/09/06 13:34:20;;;;;;;9.80;8.07;;;;;;;;;;5045321;28;20523;-82
2022/09/06 13:36:48;;;;;;;7.95;7.05;;;;;;;;;;5045407;28;20425;-81
2022/09/06 13:39:30;;;;;;;8.35;7.50;;;;;;;;;;5044822;28;20428;-83
2022/09/06 13:42:02;;;;;;;8.13;7.32;;;;;;;;;;5045579;28;20412;-83
2022/09/06 13:44:33;;;;;;;10.23;8.40;;;;;;;;;;5046858;28;20421;-82
2022/09/06 13:47:00;;;;;;;8.13;7.35;;;;;;;;;;5047851;28;20421;-80
2022/09/06 13:49:27;;;;;;;8.50;7.10;;;;;;;;;;5048227;28;20432;-82
2022/09/06 13:51:55;;;;;;;8.00;7.30;;;;;;;;;;5046185;28;20559;-81
2022/09/06 13:54:22;;;;;;;10.13;7.88;;;;;;;;;;5047843;28;20506;-80
2022/09/06 13:56:50;;;;;;;8.30;7.00;;;;;;;;;;5045093;28;20419;-81
2022/09/06 13:59:17;;;;;;;9.50;8.00;;;;;;;;;;5044012;28;20778;-82
2022/09/06 14:01:45;;;;;;;10.82;7.35;;;;;;;;;;5043862;28;20506;-82
2022/09/06 14:04:13;;;;;;;8.75;7.28;;;;;;;;;;5045960;28;20421;-82
2022/09/06 14:06:42;;;;;;;11.15;7.32;;;;;;;;;;5044854;28;20425;-82
2022/09/06 14:09:08;;;;;;;8.40;7.43;;;;;;;;;;5046607;28;20705;-82
2022/09/06 14:11:35;;;;;;;7.60;6.90;;;;;;;;;;5047168;28;21207;-82
2022/09/06 14:14:03;;;;;;;9.98;6.53;;;;;;;;;;5045382;28;20440;-82
2022/09/06 14:16:30;;;;;;;9.68;7.10;;;;;;;;;;5047509;28;20420;-82
2022/09/06 14:18:56;;;;;;;7.97;6.43;;;;;;;;;;5045822;28;20418;-83
2022/09/06 14:21:23;;;;;;;8.50;6.95;;;;;;;;;;5045844;28;20429;-83
2022/09/06 14:23:50;;;;;;;7.90;5.90;;;;;;;;;;5047863;28;20422;-83
2022/09/06 14:26:18;;;;;;;6.78;6.07;;;;;;;;;;5047760;28;20429;-83
2022/09/06 14:28:44;;;;;;;7.40;6.70;;;;;;;;;;5045762;28;20414;-82
2022/09/06 14:31:16;;;;;;;7.97;6.10;;;;;;;;;;5029424;28;20431;-82
2022/09/06 14:33:43;;;;;;;8.13;6.22;;;;;;;;;;5045066;28;20471;-81
2022/09/06 14:36:09;;;;;;;7.60;6.30;;;;;;;;;;5046695;28;20419;-82
2022/09/06 14:38:37;;;;;;;6.53;5.93;;;;;;;;;;5051282;28;20417;-82
2022/09/06 14:41:04;;;;;;;7.03;5.83;;;;;;;;;;5053536;28;20421;-81
2022/09/06 14:43:31;;;;;;;10.35;6.35;;;;;;;;;;5066324;28;20472;-82
2022/09/06 14:46:03;;;;;;;10.50;6.93;;;;;;;;;;5052367;28;20922;-82
2022/09/06 14:48:32;;;;;;;8.15;7.00;;;;;;;;;;5049023;28;20510;-82
2022/09/06 14:51:01;;;;;;;7.68;6.88;;;;;;;;;;5051669;28;20435;-82
2022/09/06 14:53:27;;;;;;;9.45;6.75;;;;;;;;;;5049419;28;20425;-81
2022/09/06 14:56:00;;;;;;;7.88;6.80;;;;;;;;;;5051284;28;20429;-81
2022/09/06 14:58:27;;;;;;;10.02;7.18;;;;;;;;;;5048655;28;20481;-82